Time;durP1;ratioP1;P1;durP2;ratioP2;P2;SDS_P1;SDS_P2;PMS_P1;PMS_P2;Temp;Humidity;BMP_temperature;BMP_pressure;BME280_temperature;BME280_humidity;BME280_pressure;Samples;Min_cycle;Max_cycle;Signal;HPM_P1;HPM_P2
2023/03/06 00:00:04;;;;;;;69.00;33.53;;;;;;;0.31;97.91;98692.09;5052843;28;20468;-74
2023/03/06 00:02:29;;;;;;;65.05;32.03;;;;;;;0.19;97.30;98675.25;5053156;28;20060;-73
2023/03/06 00:04:55;;;;;;;63.40;32.90;;;;;;;0.24;97.85;98692.22;5052802;28;20057;-74
2023/03/06 00:07:20;;;;;;;71.72;37.40;;;;;;;0.14;97.13;98675.34;5052805;28;20029;-74
2023/03/06 00:09:46;;;;;;;80.93;40.40;;;;;;;0.30;97.14;98696.38;5052820;28;20460;-74
2023/03/06 00:12:11;;;;;;;91.20;43.25;;;;;;;0.15;97.46;98674.47;5052680;28;20094;-74
2023/03/06 00:14:36;;;;;;;75.40;39.05;;;;;;;0.28;97.16;98693.00;5052860;28;20029;-74
2023/03/06 00:17:02;;;;;;;70.00;37.65;;;;;;;0.20;97.20;98676.94;5052471;28;20115;-73
2023/03/06 00:19:28;;;;;;;34.30;20.95;;;;;;;0.11;97.15;98664.34;5052663;28;20431;-73
2023/03/06 00:21:53;;;;;;;48.90;25.80;;;;;;;0.12;97.40;98674.53;5052255;28;20033;-74
2023/03/06 00:24:19;;;;;;;61.63;32.92;;;;;;;0.15;97.27;98679.59;5052534;28;20040;-74
2023/03/06 00:26:44;;;;;;;58.90;32.70;;;;;;;0.16;97.74;98677.88;5052422;28;20393;-74
2023/03/06 00:29:09;;;;;;;55.08;33.03;;;;;;;0.24;97.65;98686.25;5052600;28;20092;-74
2023/03/06 00:31:35;;;;;;;52.20;31.88;;;;;;;0.29;97.42;98689.56;5052383;28;20468;-73
2023/03/06 00:34:02;;;;;;;41.50;27.60;;;;;;;0.14;97.15;98661.72;5051914;28;20029;-74
2023/03/06 00:36:27;;;;;;;35.08;22.80;;;;;;;0.36;97.19;98688.56;5052205;28;20032;-74
2023/03/06 00:38:52;;;;;;;36.88;21.27;;;;;;;0.10;96.93;98635.34;5052360;28;20028;-74
2023/03/06 00:41:19;;;;;;;56.33;28.75;;;;;;;0.40;96.95;98682.50;5052362;28;20025;-74
2023/03/06 00:43:45;;;;;;;404.23;126.03;;;;;;;0.33;96.89;98668.13;5051662;28;20025;-74
2023/03/06 00:46:10;;;;;;;602.90;195.18;;;;;;;0.36;97.21;98657.81;5052160;28;20029;-74
2023/03/06 00:48:35;;;;;;;301.88;92.70;;;;;;;0.31;96.99;98651.13;5052213;28;20036;-73
2023/03/06 00:51:01;;;;;;;72.47;37.50;;;;;;;0.33;96.80;98651.91;5051891;28;20485;-74
2023/03/06 00:53:26;;;;;;;45.05;27.10;;;;;;;0.43;97.48;98668.78;5052542;28;20029;-73
2023/03/06 00:55:51;;;;;;;43.55;25.90;;;;;;;0.22;97.33;98631.69;5052204;28;20143;-74
2023/03/06 00:58:17;;;;;;;41.67;27.48;;;;;;;0.19;97.50;98640.25;5051442;28;20092;-74
2023/03/06 01:00:42;;;;;;;36.47;21.95;;;;;;;-0.15;98.47;98613.66;5051261;28;20035;-74
2023/03/06 01:03:11;;;;;;;39.60;22.73;;;;;;;0.07;99.50;98662.72;5051762;28;20130;-74
2023/03/06 01:05:37;;;;;;;37.50;20.90;;;;;;;-0.05;99.63;98631.34;5051604;28;20039;-73
2023/03/06 01:08:03;;;;;;;33.47;21.25;;;;;;;0.06;100.00;98638.00;5051426;28;20037;-73
2023/03/06 01:10:29;;;;;;;34.25;21.45;;;;;;;0.29;100.00;98651.13;5051587;28;20481;-73
2023/03/06 01:12:55;;;;;;;37.60;22.90;;;;;;;0.33;99.49;98649.34;5051506;28;20109;-72
2023/03/06 01:15:20;;;;;;;35.67;20.65;;;;;;;0.38;99.28;98645.84;5051791;28;20159;-73
2023/03/06 01:17:46;;;;;;;39.28;23.13;;;;;;;0.33;99.38;98631.44;5051383;28;20024;-72
2023/03/06 01:20:14;;;;;;;34.80;23.25;;;;;;;0.26;99.33;98614.53;5051332;28;20116;-73
2023/03/06 01:22:40;;;;;;;34.75;22.98;;;;;;;0.36;99.16;98616.84;5051754;28;20376;-72
2023/03/06 01:25:06;;;;;;;32.75;21.15;;;;;;;0.23;99.57;98606.03;5051308;28;20128;-72
2023/03/06 01:27:31;;;;;;;29.65;21.52;;;;;;;0.23;99.64;98592.38;5051597;28;20447;-72
2023/03/06 01:29:56;;;;;;;32.72;21.42;;;;;;;0.42;100.00;98619.28;5051654;28;20033;-73
2023/03/06 01:32:22;;;;;;;32.08;19.63;;;;;;;0.36;99.58;98593.78;5051290;28;20029;-72
2023/03/06 01:34:47;;;;;;;25.52;15.88;;;;;;;0.54;99.75;98618.16;5051222;28;20044;-73
2023/03/06 01:37:12;;;;;;;28.05;18.60;;;;;;;0.42;99.16;98580.00;5051472;28;20463;-72
2023/03/06 01:39:38;;;;;;;27.20;18.35;;;;;;;0.64;99.18;98606.00;5051446;28;20445;-73
2023/03/06 01:42:03;;;;;;;26.42;17.20;;;;;;;0.53;99.13;98579.75;5051105;28;20025;-73
2023/03/06 01:44:29;;;;;;;25.10;17.27;;;;;;;0.53;98.70;98577.19;5050821;28;20035;-72
2023/03/06 01:46:54;;;;;;;26.80;17.20;;;;;;;0.47;99.12;98571.34;5051188;28;20090;-72
2023/03/06 01:49:22;;;;;;;25.15;17.48;;;;;;;0.71;99.53;98602.38;5051335;28;20025;-72
2023/03/06 01:51:56;;;;;;;29.15;16.88;;;;;;;0.74;99.14;98610.00;5051270;28;20024;-72
2023/03/06 01:54:25;;;;;;;24.55;15.55;;;;;;;0.70;98.85;98590.44;5054038;28;20017;-72
2023/03/06 01:56:55;;;;;;;26.27;15.90;;;;;;;0.74;99.11;98581.81;5055098;28;20097;-72
2023/03/06 01:59:23;;;;;;;22.85;15.75;;;;;;;0.49;98.94;98559.31;5055515;28;20052;-72
2023/03/06 02:01:49;;;;;;;21.30;15.57;;;;;;;0.74;99.23;98590.34;5055062;28;20024;-72
2023/03/06 02:04:16;;;;;;;24.63;15.32;;;;;;;0.78;98.58;98588.56;5055334;28;20427;-72
2023/03/06 02:06:43;;;;;;;28.40;15.68;;;;;;;0.62;98.24;98561.59;5055421;28;20021;-72
2023/03/06 02:09:10;;;;;;;24.50;15.40;;;;;;;0.52;98.57;98550.75;5055008;28;20397;-72
2023/03/06 02:11:35;;;;;;;24.38;16.63;;;;;;;0.74;98.43;98585.22;5055056;28;20056;-72
2023/03/06 02:14:01;;;;;;;24.33;15.82;;;;;;;0.67;98.83;98577.69;5054679;28;20519;-72
2023/03/06 02:16:29;;;;;;;24.02;16.30;;;;;;;0.43;98.89;98539.00;5054870;28;20029;-72
2023/03/06 02:18:57;;;;;;;23.40;15.73;;;;;;;0.39;99.16;98523.75;5054901;28;20036;-72
2023/03/06 02:21:34;;;;;;;28.50;18.85;;;;;;;0.71;98.82;98575.03;5054915;28;20527;-72
2023/03/06 02:24:28;;;;;;;23.92;17.15;;;;;;;0.53;99.24;98533.66;5054622;28;20021;-73
2023/03/06 02:26:55;;;;;;;28.58;16.13;;;;;;;0.51;98.92;98533.69;5054771;28;20116;-73
2023/03/06 02:29:24;;;;;;;23.50;15.85;;;;;;;0.70;99.79;98564.81;5055008;28;20040;-72
2023/03/06 02:31:50;;;;;;;21.98;16.38;;;;;;;0.73;99.62;98560.47;5054737;28;20051;-72
2023/03/06 02:34:15;;;;;;;24.40;15.80;;;;;;;0.76;99.42;98564.69;5054981;28;20461;-72
2023/03/06 02:36:50;;;;;;;27.67;16.58;;;;;;;0.65;98.83;98529.06;5054893;28;20028;-73
2023/03/06 02:39:21;;;;;;;24.13;17.30;;;;;;;0.69;99.39;98555.47;5054736;28;20033;-73
2023/03/06 02:41:46;;;;;;;28.75;17.05;;;;;;;0.58;99.30;98529.25;5054892;28;20033;-72
2023/03/06 02:44:12;;;;;;;24.70;16.15;;;;;;;0.66;100.00;98542.72;5054715;28;20052;-72
2023/03/06 02:46:37;;;;;;;24.00;16.00;;;;;;;0.71;99.82;98553.69;5055050;28;20377;-72
2023/03/06 02:49:02;;;;;;;23.70;15.70;;;;;;;0.57;100.00;98510.47;5054449;28;20107;-72
2023/03/06 02:51:28;;;;;;;24.92;15.98;;;;;;;0.77;99.36;98535.63;5054548;28;20117;-72
2023/03/06 02:53:53;;;;;;;25.02;16.65;;;;;;;0.70;99.91;98523.81;5054512;28;20487;-72
2023/03/06 02:56:19;;;;;;;33.50;19.50;;;;;;;0.61;99.57;98506.97;5054723;28;20376;-72
2023/03/06 02:58:45;;;;;;;37.28;22.27;;;;;;;0.69;100.00;98527.28;5054565;28;20036;-72
2023/03/06 03:01:10;;;;;;;37.78;21.85;;;;;;;0.61;100.00;98514.66;5054280;28;20440;-72
2023/03/06 03:03:35;;;;;;;36.50;20.98;;;;;;;0.71;100.00;98521.22;5054416;28;20417;-72
2023/03/06 03:06:04;;;;;;;39.38;22.65;;;;;;;0.69;100.00;98517.88;5051853;28;20021;-72
2023/03/06 03:08:29;;;;;;;32.42;21.48;;;;;;;0.49;100.00;98490.16;5054206;28;20115;-73
2023/03/06 03:10:55;;;;;;;36.78;22.58;;;;;;;0.73;100.00;98518.63;5053993;28;20196;-72
2023/03/06 03:13:21;;;;;;;45.40;25.58;;;;;;;0.56;100.00;98493.44;5054450;28;20087;-72
2023/03/06 03:15:57;;;;;;;42.85;23.98;;;;;;;0.73;100.00;98506.66;5054308;28;20029;-72
2023/03/06 03:18:22;;;;;;;46.83;26.23;;;;;;;0.76;100.00;98505.75;5054174;28;20033;-72
2023/03/06 03:20:48;;;;;;;38.80;23.60;;;;;;;0.72;100.00;98509.25;5054064;28;20079;-72
2023/03/06 03:23:13;;;;;;;44.47;23.75;;;;;;;0.63;100.00;98510.34;5054043;28;20033;-73
2023/03/06 03:25:38;;;;;;;42.90;24.60;;;;;;;0.49;100.00;98473.94;5053979;28;20048;-72
2023/03/06 03:28:04;;;;;;;46.90;25.17;;;;;;;0.61;100.00;98499.28;5053818;28;20104;-72
2023/03/06 03:30:29;;;;;;;46.03;26.42;;;;;;;0.51;100.00;98469.66;5053885;28;20060;-72
2023/03/06 03:32:54;;;;;;;43.03;25.85;;;;;;;0.49;100.00;98472.22;5053589;28;20029;-72
2023/03/06 03:35:20;;;;;;;48.85;27.08;;;;;;;0.41;100.00;98456.22;5052501;28;20033;-72
2023/03/06 03:37:45;;;;;;;41.03;24.30;;;;;;;0.67;100.00;98480.31;5053665;28;20021;-72
2023/03/06 03:40:11;;;;;;;40.20;23.42;;;;;;;0.67;100.00;98493.13;5053622;28;20112;-72
2023/03/06 03:42:36;;;;;;;41.08;24.40;;;;;;;0.65;100.00;98466.72;5054014;28;20092;-72
2023/03/06 03:45:02;;;;;;;35.90;23.05;;;;;;;0.55;100.00;98448.19;5053492;28;20040;-72
2023/03/06 03:47:27;;;;;;;36.97;22.90;;;;;;;0.78;100.00;98485.19;5053595;28;20021;-73
2023/03/06 03:49:52;;;;;;;37.10;21.77;;;;;;;0.68;100.00;98441.88;5053191;28;20475;-72
2023/03/06 03:52:18;;;;;;;38.13;23.20;;;;;;;0.84;100.00;98460.22;5053349;28;20055;-73
2023/03/06 03:54:43;;;;;;;34.92;21.52;;;;;;;0.87;100.00;98465.28;5053355;28;20021;-72
2023/03/06 03:57:08;;;;;;;38.85;23.27;;;;;;;0.86;100.00;98462.78;5053122;28;20031;-72
2023/03/06 03:59:34;;;;;;;38.75;21.88;;;;;;;0.81;100.00;98459.50;5053410;28;20104;-73
2023/03/06 04:01:59;;;;;;;31.98;20.00;;;;;;;0.87;100.00;98460.16;5053073;28;20056;-73
2023/03/06 04:04:25;;;;;;;35.78;21.17;;;;;;;0.80;100.00;98434.72;5053231;28;20072;-72
2023/03/06 04:06:50;;;;;;;45.15;27.67;;;;;;;0.71;100.00;98433.25;5053050;28;20017;-73
2023/03/06 04:09:16;;;;;;;42.47;28.17;;;;;;;0.66;100.00;98423.13;5053052;28;20036;-72
2023/03/06 04:11:41;;;;;;;39.50;24.15;;;;;;;0.86;100.00;98450.78;5052951;28;20033;-73
2023/03/06 04:14:08;;;;;;;40.72;24.48;;;;;;;0.71;100.00;98418.72;5052875;28;20075;-73
2023/03/06 04:16:33;;;;;;;35.83;22.05;;;;;;;0.83;100.00;98434.66;5052131;28;20078;-73
2023/03/06 04:18:59;;;;;;;36.08;23.50;;;;;;;0.68;100.00;98420.53;5052913;28;20473;-73
2023/03/06 04:21:24;;;;;;;37.38;23.88;;;;;;;0.85;100.00;98443.16;5052795;28;20116;-73
2023/03/06 04:23:49;;;;;;;36.95;22.42;;;;;;;0.66;100.00;98407.75;5052854;28;20108;-72
2023/03/06 04:26:15;;;;;;;34.20;22.55;;;;;;;0.66;100.00;98415.44;5052744;28;20045;-73
2023/03/06 04:28:40;;;;;;;36.17;23.30;;;;;;;0.86;100.00;98437.97;5053090;28;20033;-73
2023/03/06 04:31:05;;;;;;;33.42;22.00;;;;;;;0.69;100.00;98401.72;5052365;28;20021;-73
2023/03/06 04:33:31;;;;;;;39.88;25.90;;;;;;;0.73;100.00;98404.16;5052669;28;20530;-73
2023/03/06 04:35:56;;;;;;;39.47;25.35;;;;;;;0.75;100.00;98407.50;5052310;28;20025;-72
2023/03/06 04:38:22;;;;;;;36.60;25.70;;;;;;;0.72;100.00;98396.50;5052787;28;20388;-73
2023/03/06 04:40:48;;;;;;;41.33;26.60;;;;;;;0.85;100.00;98407.28;5052704;28;20460;-73
2023/03/06 04:43:13;;;;;;;35.00;23.92;;;;;;;1.07;100.00;98433.97;5052407;28;20387;-73
2023/03/06 04:45:39;;;;;;;36.05;24.20;;;;;;;1.10;100.00;98422.81;5052404;28;20029;-73
2023/03/06 04:48:04;;;;;;;39.40;26.05;;;;;;;1.04;100.00;98415.28;5052192;28;20036;-73
2023/03/06 04:50:31;;;;;;;38.00;25.13;;;;;;;0.96;100.00;98402.66;5052173;28;20021;-73
2023/03/06 04:52:59;;;;;;;32.08;22.98;;;;;;;1.13;100.00;98410.72;5052034;28;20021;-72
2023/03/06 04:55:24;;;;;;;31.45;23.60;;;;;;;1.13;100.00;98412.44;5052439;28;20641;-73
2023/03/06 04:57:50;;;;;;;36.28;23.55;;;;;;;1.11;100.00;98422.75;5052403;28;20049;-73
2023/03/06 05:00:23;;;;;;;45.90;25.38;;;;;;;0.97;100.00;98386.44;5052023;28;20029;-73
2023/03/06 05:02:49;;;;;;;45.10;25.20;;;;;;;1.12;100.00;98405.66;5051999;28;20052;-73
2023/03/06 05:05:16;;;;;;;45.08;26.23;;;;;;;1.09;100.00;98398.88;5051831;28;20384;-73
2023/03/06 05:07:42;;;;;;;31.83;22.10;;;;;;;1.14;100.00;98391.91;5052194;28;20025;-72
2023/03/06 05:10:11;;;;;;;33.17;22.33;;;;;;;1.30;100.00;98420.50;5051916;28;20108;-73
2023/03/06 05:12:38;;;;;;;30.80;22.00;;;;;;;1.17;100.00;98391.78;5052157;28;20060;-72
2023/03/06 05:15:05;;;;;;;30.92;21.23;;;;;;;1.14;100.00;98380.81;5051757;28;20021;-72
2023/03/06 05:17:30;;;;;;;34.67;23.02;;;;;;;1.24;100.00;98397.59;5051702;28;20058;-72
2023/03/06 05:19:55;;;;;;;37.17;24.25;;;;;;;1.31;100.00;98405.97;5051651;28;20056;-73
2023/03/06 05:22:20;;;;;;;31.85;22.05;;;;;;;1.32;100.00;98410.22;5051743;28;20032;-73
2023/03/06 05:24:46;;;;;;;36.35;25.95;;;;;;;1.09;100.00;98362.13;5051800;28;20102;-72
2023/03/06 05:27:11;;;;;;;33.05;23.02;;;;;;;1.37;100.00;98409.19;5051688;28;20029;-72
2023/03/06 05:29:37;;;;;;;29.38;20.65;;;;;;;1.18;100.00;98378.13;5051700;28;20029;-72
2023/03/06 05:32:02;;;;;;;26.90;20.05;;;;;;;1.25;100.00;98379.59;5051360;28;20024;-73
2023/03/06 05:34:27;;;;;;;31.50;21.00;;;;;;;1.36;100.00;98394.69;5051770;28;20067;-72
2023/03/06 05:36:53;;;;;;;32.95;21.52;;;;;;;1.46;100.00;98406.34;5051857;28;20057;-72
2023/03/06 05:39:18;;;;;;;28.48;20.73;;;;;;;1.22;100.00;98366.88;5051463;28;20339;-72
2023/03/06 05:41:43;;;;;;;32.78;22.67;;;;;;;1.36;100.00;98378.47;5051763;28;20039;-72
2023/03/06 05:44:09;;;;;;;29.75;21.05;;;;;;;1.29;100.00;98364.97;5051889;28;20484;-72
2023/03/06 05:46:34;;;;;;;30.63;21.42;;;;;;;1.55;100.00;98405.22;5051936;28;20064;-72
2023/03/06 05:48:59;;;;;;;28.60;19.52;;;;;;;1.40;100.00;98380.03;5051638;28;20129;-73
2023/03/06 05:51:25;;;;;;;31.75;20.35;;;;;;;1.61;100.00;98405.06;5051662;28;20147;-72
2023/03/06 05:53:51;;;;;;;27.75;19.85;;;;;;;1.67;100.00;98410.00;5051771;28;20385;-72
2023/03/06 05:56:16;;;;;;;30.05;20.17;;;;;;;1.60;100.00;98387.97;5051453;28;20029;-72
2023/03/06 05:58:42;;;;;;;28.73;20.33;;;;;;;1.73;100.00;98409.81;5051652;28;20025;-73
2023/03/06 06:01:09;;;;;;;28.92;20.80;;;;;;;1.47;100.00;98361.00;5051370;28;20028;-72
2023/03/06 06:03:35;;;;;;;26.63;19.38;;;;;;;1.64;100.00;98381.84;5050218;28;20388;-73
2023/03/06 06:06:04;;;;;;;25.73;19.08;;;;;;;1.76;100.00;98403.72;5051741;28;20040;-72
2023/03/06 06:08:29;;;;;;;28.55;19.50;;;;;;;1.73;100.00;98398.72;5051649;28;20114;-73
2023/03/06 06:10:54;;;;;;;26.40;18.90;;;;;;;1.82;100.00;98407.84;5051337;28;20064;-73
2023/03/06 06:13:20;;;;;;;27.63;20.13;;;;;;;1.87;100.00;98406.81;5051132;28;20032;-73
2023/03/06 06:15:45;;;;;;;25.40;18.83;;;;;;;1.92;100.00;98409.22;5051458;28;20040;-73
2023/03/06 06:18:10;;;;;;;24.85;18.38;;;;;;;1.83;100.00;98382.13;5050978;28;20025;-73
2023/03/06 06:20:36;;;;;;;22.90;17.73;;;;;;;1.84;100.00;98382.97;5051556;28;20025;-73
2023/03/06 06:23:02;;;;;;;24.27;17.65;;;;;;;1.84;100.00;98391.50;5051497;28;20033;-73
2023/03/06 06:25:27;;;;;;;23.77;17.05;;;;;;;1.82;100.00;98377.88;5051286;28;20077;-73
2023/03/06 06:27:54;;;;;;;24.58;18.20;;;;;;;1.92;100.00;98384.41;5051387;28;20048;-73
2023/03/06 06:30:20;;;;;;;22.02;16.88;;;;;;;1.93;100.00;98378.38;5051019;28;20495;-73
2023/03/06 06:32:45;;;;;;;21.75;16.52;;;;;;;2.04;100.00;98393.44;5051187;28;20052;-73
2023/03/06 06:35:11;;;;;;;24.38;16.70;;;;;;;2.19;100.00;98413.50;5051192;28;20028;-72
2023/03/06 06:37:36;;;;;;;21.17;15.45;;;;;;;2.23;100.00;98412.50;5051374;28;20068;-73
2023/03/06 06:40:03;;;;;;;37.88;23.75;;;;;;;2.29;100.00;98413.19;5051796;28;20529;-73
2023/03/06 06:42:28;;;;;;;27.95;19.67;;;;;;;2.33;100.00;98415.59;5054777;28;20025;-73
2023/03/06 06:44:53;;;;;;;23.10;17.52;;;;;;;2.27;100.00;98392.66;5054780;28;20103;-73
2023/03/06 06:47:19;;;;;;;26.20;20.75;;;;;;;2.44;100.00;98410.09;5054400;28;20044;-73
2023/03/06 06:49:49;;;;;;;22.25;17.02;;;;;;;2.46;100.00;98423.75;5054590;28;20128;-73
2023/03/06 06:52:14;;;;;;;21.05;16.67;;;;;;;2.48;100.00;98409.94;5054427;28;20075;-73
2023/03/06 06:54:39;;;;;;;22.25;17.08;;;;;;;2.46;100.00;98406.59;5054755;28;20029;-72
2023/03/06 06:57:05;;;;;;;23.52;18.52;;;;;;;2.43;100.00;98387.88;5054461;28;20025;-73
2023/03/06 06:59:30;;;;;;;19.90;15.88;;;;;;;2.48;100.00;98406.53;5054591;28;20029;-72
2023/03/06 07:01:55;;;;;;;22.90;17.90;;;;;;;2.49;100.00;98400.53;5054636;28;20033;-72
2023/03/06 07:04:21;;;;;;;29.65;23.90;;;;;;;2.68;100.00;98419.56;5054191;28;20029;-72
2023/03/06 07:06:46;;;;;;;27.40;22.00;;;;;;;2.75;100.00;98422.75;5054475;28;20460;-72
2023/03/06 07:09:12;;;;;;;23.40;17.20;;;;;;;2.54;99.86;98374.66;5054135;28;20055;-72
2023/03/06 07:11:38;;;;;;;27.50;21.60;;;;;;;2.75;99.58;98418.47;5054260;28;20033;-72
2023/03/06 07:14:03;;;;;;;25.65;17.90;;;;;;;2.69;99.48;98395.50;5054229;28;20052;-72
2023/03/06 07:16:29;;;;;;;24.92;19.38;;;;;;;2.85;99.44;98415.56;5053770;28;20472;-72
2023/03/06 07:18:54;;;;;;;30.25;26.33;;;;;;;2.83;99.19;98404.50;5043270;28;20563;-73
2023/03/06 07:21:19;;;;;;;20.98;17.15;;;;;;;2.82;98.88;98401.06;5042361;28;20641;-74
2023/03/06 07:23:45;;;;;;;18.50;15.35;;;;;;;2.87;98.54;98396.63;5051753;28;20112;-72
2023/03/06 07:26:10;;;;;;;23.52;16.67;;;;;;;3.03;98.36;98417.47;5053606;28;20526;-73
2023/03/06 07:28:35;;;;;;;22.08;16.67;;;;;;;2.95;98.58;98401.47;5047410;28;20114;-73
2023/03/06 07:31:01;;;;;;;23.30;17.38;;;;;;;3.09;98.05;98424.16;5051656;28;20040;-73
2023/03/06 07:33:26;;;;;;;37.50;26.90;;;;;;;3.12;97.95;98424.00;5053490;28;20032;-72
2023/03/06 07:35:52;;;;;;;32.75;22.83;;;;;;;3.12;97.80;98426.59;5053678;28;20033;-73
2023/03/06 07:38:17;;;;;;;29.58;19.20;;;;;;;3.06;97.68;98404.50;5053471;28;20104;-73
2023/03/06 07:40:42;;;;;;;44.25;29.25;;;;;;;3.18;97.57;98414.34;5053598;28;20052;-72
2023/03/06 07:43:09;;;;;;;45.53;30.67;;;;;;;3.23;97.09;98412.44;5053333;28;20091;-72
2023/03/06 07:45:34;;;;;;;34.30;22.77;;;;;;;3.28;96.88;98412.28;5053358;28;20036;-72
2023/03/06 07:48:00;;;;;;;27.88;20.63;;;;;;;3.49;96.29;98433.81;5053804;28;20044;-72
2023/03/06 07:50:25;;;;;;;27.10;21.58;;;;;;;3.45;95.92;98402.19;5053421;28;20044;-73
2023/03/06 07:52:51;;;;;;;26.60;20.08;;;;;;;3.67;95.60;98432.28;5052207;28;20029;-73
2023/03/06 07:55:17;;;;;;;27.73;20.85;;;;;;;3.60;95.03;98411.06;5053331;28;20457;-73
2023/03/06 07:57:42;;;;;;;20.58;15.30;;;;;;;3.68;94.50;98408.22;5053483;28;20083;-73
2023/03/06 08:00:12;;;;;;;21.35;15.98;;;;;;;3.83;93.67;98428.19;5053362;28;20056;-73
2023/03/06 08:02:38;;;;;;;17.67;13.80;;;;;;;3.74;93.35;98393.34;5053489;28;20025;-73
2023/03/06 08:05:04;;;;;;;18.27;13.63;;;;;;;3.97;93.15;98410.50;5053470;28;20029;-73
2023/03/06 08:07:29;;;;;;;17.83;15.07;;;;;;;4.23;92.57;98427.47;5053156;28;20480;-73
2023/03/06 08:09:55;;;;;;;20.55;13.23;;;;;;;4.24;91.73;98420.59;5053312;28;20033;-73
2023/03/06 08:12:20;;;;;;;18.30;13.30;;;;;;;4.43;91.16;98434.41;5052937;28;20028;-74
2023/03/06 08:14:45;;;;;;;15.35;11.88;;;;;;;4.56;91.13;98436.47;5053022;28;20435;-73
2023/03/06 08:17:11;;;;;;;18.23;14.05;;;;;;;4.56;90.68;98406.38;5052917;28;20107;-73
2023/03/06 08:19:36;;;;;;;18.27;12.85;;;;;;;4.83;89.78;98413.81;5051822;28;20090;-73
2023/03/06 08:22:04;;;;;;;17.35;12.57;;;;;;;5.07;88.82;98430.00;5052942;28;20025;-73
2023/03/06 08:24:30;;;;;;;20.80;16.23;;;;;;;5.31;88.15;98434.09;5052607;28;20062;-73
2023/03/06 08:26:55;;;;;;;20.17;17.35;;;;;;;5.27;87.79;98422.22;5052868;28;20502;-73
2023/03/06 08:29:20;;;;;;;21.77;18.85;;;;;;;5.39;87.13;98441.47;5051206;28;20040;-73
2023/03/06 08:31:47;;;;;;;23.45;19.92;;;;;;;5.13;86.99;98416.81;5052846;28;20461;-73
2023/03/06 08:34:15;;;;;;;26.25;19.48;;;;;;;5.07;87.02;98420.50;5052636;28;20037;-73
2023/03/06 08:36:41;;;;;;;25.80;23.05;;;;;;;5.14;87.45;98442.56;5052675;28;20477;-74
2023/03/06 08:39:06;;;;;;;88.30;79.20;;;;;;;4.89;87.89;98417.00;5052706;28;20028;-73
2023/03/06 08:41:33;;;;;;;30.58;27.05;;;;;;;5.05;87.99;98440.38;5052343;28;20386;-73
2023/03/06 08:43:58;;;;;;;31.33;26.95;;;;;;;4.87;87.99;98397.31;5052434;28;20033;-73
2023/03/06 08:46:26;;;;;;;30.30;25.75;;;;;;;5.06;88.26;98416.25;5052287;28;20023;-73
2023/03/06 08:48:52;;;;;;;44.90;34.70;;;;;;;5.32;87.32;98440.09;5052423;28;20032;-73
2023/03/06 08:51:18;;;;;;;26.67;21.48;;;;;;;5.49;87.24;98435.00;5052093;28;20423;-73
2023/03/06 08:53:44;;;;;;;20.08;14.20;;;;;;;5.67;86.76;98436.72;5052451;28;20430;-73
2023/03/06 08:56:18;;;;;;;21.90;18.02;;;;;;;5.86;86.06;98439.31;5052582;28;20377;-73
2023/03/06 08:58:44;;;;;;;32.13;23.02;;;;;;;5.85;85.08;98416.94;5052458;28;20058;-73
2023/03/06 09:01:15;;;;;;;38.22;28.58;;;;;;;6.16;84.84;98443.97;5052409;28;20052;-73
2023/03/06 09:03:40;;;;;;;30.17;23.73;;;;;;;6.24;84.71;98434.09;5051650;28;20083;-73
2023/03/06 09:06:06;;;;;;;37.60;28.65;;;;;;;6.42;83.72;98437.53;5052237;28;20600;-73
2023/03/06 09:08:31;;;;;;;36.30;25.35;;;;;;;6.34;83.01;98414.63;5051964;28;20078;-73
2023/03/06 09:10:56;;;;;;;29.00;22.30;;;;;;;6.26;82.98;98398.66;5051897;28;20029;-73
2023/03/06 09:13:22;;;;;;;36.30;24.30;;;;;;;6.38;81.88;98417.91;5052269;28;20158;-73
2023/03/06 09:15:47;;;;;;;49.42;34.42;;;;;;;6.53;81.60;98431.81;5052160;28;20100;-73
2023/03/06 09:18:12;;;;;;;41.05;29.65;;;;;;;6.41;82.06;98413.41;5051858;28;20422;-73
2023/03/06 09:20:38;;;;;;;49.63;35.13;;;;;;;6.40;82.11;98432.41;5052463;28;20029;-73
2023/03/06 09:23:03;;;;;;;48.00;35.15;;;;;;;6.38;82.32;98433.41;5052347;28;20040;-73
2023/03/06 09:25:28;;;;;;;33.33;24.88;;;;;;;6.39;82.47;98442.84;5051449;28;20053;-74
2023/03/06 09:27:53;;;;;;;21.45;15.77;;;;;;;6.22;82.12;98423.81;5052388;28;20035;-73
2023/03/06 09:30:19;;;;;;;24.60;18.77;;;;;;;6.25;81.47;98439.19;5051775;28;20075;-73
2023/03/06 09:32:44;;;;;;;36.95;25.17;;;;;;;6.04;81.68;98416.13;5051959;28;20105;-73
2023/03/06 09:35:10;;;;;;;49.55;35.15;;;;;;;5.95;81.29;98417.41;5051855;28;20029;-73
2023/03/06 09:37:35;;;;;;;29.27;23.60;;;;;;;6.05;82.35;98438.47;5051454;28;20110;-73
2023/03/06 09:40:01;;;;;;;31.80;26.02;;;;;;;5.87;82.56;98411.72;5051408;28;20457;-73
2023/03/06 09:42:27;;;;;;;34.15;26.60;;;;;;;5.80;82.20;98412.91;5051334;28;20095;-73
2023/03/06 09:44:57;;;;;;;24.98;19.88;;;;;;;5.77;82.42;98421.63;5051885;28;20025;-73
2023/03/06 09:47:36;;;;;;;22.45;16.38;;;;;;;5.86;82.37;98436.72;5051319;28;20035;-74
2023/03/06 09:50:10;;;;;;;21.80;19.40;;;;;;;5.88;82.68;98434.06;5051289;28;20057;-73
2023/03/06 09:53:01;;;;;;;20.45;15.68;;;;;;;5.02;83.36;98413.88;5050953;28;20055;-73
2023/03/06 09:55:32;;;;;;;24.63;19.60;;;;;;;4.30;85.13;98415.19;5050741;28;20063;-74
2023/03/06 09:58:19;;;;;;;18.67;14.70;;;;;;;3.96;85.78;98439.72;5051533;28;20079;-74
2023/03/06 10:01:05;;;;;;;35.40;23.75;;;;;;;3.60;86.46;98426.53;5051408;28;20526;-74
2023/03/06 10:03:53;;;;;;;31.38;20.67;;;;;;;3.16;89.24;98410.16;5051131;28;20110;-74
2023/03/06 10:06:40;;;;;;;26.25;18.67;;;;;;;3.11;91.38;98427.50;5048044;28;20037;-74
2023/03/06 10:09:33;;;;;;;41.53;27.00;;;;;;;3.07;92.82;98431.91;5041687;28;20056;-74
2023/03/06 10:12:03;;;;;;;24.38;17.40;;;;;;;2.88;93.23;98402.59;5031395;28;20033;-74
2023/03/06 10:14:44;;;;;;;24.73;19.08;;;;;;;3.10;94.77;98429.22;5031319;28;20026;-74
2023/03/06 10:17:16;;;;;;;28.25;20.10;;;;;;;2.94;94.62;98374.06;5035248;28;20447;-74
2023/03/06 10:19:42;;;;;;;31.75;23.17;;;;;;;3.06;94.94;98380.53;5034894;28;20117;-74
2023/03/06 10:22:29;;;;;;;26.10;19.70;;;;;;;3.37;93.45;98417.09;5036467;28;20108;-74
2023/03/06 10:25:13;;;;;;;28.83;21.67;;;;;;;3.40;93.32;98413.56;5045279;28;20037;-74
2023/03/06 10:27:48;;;;;;;32.08;22.45;;;;;;;3.46;92.50;98410.78;5045146;28;20021;-74
2023/03/06 10:30:22;;;;;;;28.98;22.08;;;;;;;3.31;91.56;98359.88;5045060;28;20473;-74
2023/03/06 10:33:19;;;;;;;27.38;20.27;;;;;;;3.63;90.59;98405.81;5042555;28;20096;-74
2023/03/06 10:35:48;;;;;;;26.95;20.70;;;;;;;3.65;90.75;98400.59;5035093;28;20064;-74
2023/03/06 10:38:28;;;;;;;33.65;22.30;;;;;;;3.75;89.81;98400.19;5034952;28;20420;-74
2023/03/06 10:41:12;;;;;;;27.55;20.67;;;;;;;3.78;91.31;98401.78;5045333;28;20037;-74
2023/03/06 10:43:39;;;;;;;28.65;20.15;;;;;;;3.73;89.32;98391.69;5054647;28;20883;-74
2023/03/06 10:46:07;;;;;;;27.80;20.02;;;;;;;3.80;88.97;98392.28;5054689;28;20068;-74
2023/03/06 10:48:37;;;;;;;23.58;19.42;;;;;;;3.82;88.93;98389.63;5054294;28;20028;-74
2023/03/06 10:51:23;;;;;;;28.48;22.15;;;;;;;3.84;89.95;98385.28;5054344;28;20033;-74
2023/03/06 10:53:56;;;;;;;25.95;20.67;;;;;;;3.86;89.67;98373.16;5054556;28;20049;-74
2023/03/06 10:56:39;;;;;;;37.10;25.40;;;;;;;4.00;88.69;98391.47;5054274;28;20427;-74
2023/03/06 10:59:06;;;;;;;35.65;24.45;;;;;;;3.98;88.28;98370.94;5052865;28;20029;-74
2023/03/06 11:01:32;;;;;;;36.97;24.98;;;;;;;4.10;88.21;98377.34;5039413;28;20033;-74
2023/03/06 11:04:34;;;;;;;28.77;22.00;;;;;;;4.09;87.93;98378.25;5034354;28;20108;-74
2023/03/06 11:07:05;;;;;;;40.53;22.45;;;;;;;4.02;87.51;98379.38;5034556;28;20029;-74
2023/03/06 11:09:32;;;;;;;29.13;22.30;;;;;;;3.79;87.78;98351.97;5034323;28;20037;-74
2023/03/06 11:12:23;;;;;;;30.23;21.73;;;;;;;3.84;87.63;98382.72;5034202;28;20021;-74
2023/03/06 11:15:09;;;;;;;25.35;19.13;;;;;;;3.80;87.15;98376.84;4992454;28;20042;-74
2023/03/06 11:17:37;;;;;;;25.67;20.70;;;;;;;3.80;88.01;98378.56;4991990;28;20037;-74
2023/03/06 11:20:17;;;;;;;42.40;33.80;;;;;;;3.86;88.48;98374.00;4991896;28;20113;-74
2023/03/06 11:22:48;;;;;;;55.90;45.92;;;;;;;3.77;87.65;98350.38;4991890;28;20606;-74